Time;durP1;ratioP1;P1;durP2;ratioP2;P2;SDS_P1;SDS_P2;PMS_P1;PMS_P2;Temp;Humidity;BMP_temperature;BMP_pressure;BME280_temperature;BME280_humidity;BME280_pressure;Samples;Min_cycle;Max_cycle;Signal;HPM_P1;HPM_P2
2022/10/19 00:02:04;;;;;;;8.00;1.30;;;11.30;99.90;;;;;;5063284;28;20036;-55
2022/10/19 00:04:29;;;;;;;6.53;1.00;;;11.30;99.90;;;;;;5052413;28;20072;-55
2022/10/19 00:06:55;;;;;;;13.25;1.25;;;11.30;99.90;;;;;;5051938;28;20041;-57
2022/10/19 00:09:21;;;;;;;3.57;1.10;;;11.20;99.90;;;;;;5062686;28;20071;-57
2022/10/19 00:11:49;;;;;;;5.30;1.13;;;11.20;99.90;;;;;;5049517;28;20303;-57
2022/10/19 00:14:21;;;;;;;3.83;0.80;;;11.10;99.90;;;;;;5064072;28;20036;-55
2022/10/19 00:16:48;;;;;;;4.25;1.10;;;11.10;99.90;;;;;;5059146;28;20389;-56
2022/10/19 00:19:18;;;;;;;4.80;1.10;;;11.00;99.90;;;;;;5057373;28;20037;-58
2022/10/19 00:21:43;;;;;;;3.20;0.73;;;10.90;99.90;;;;;;5053903;28;20206;-56
2022/10/19 00:24:09;;;;;;;5.73;1.17;;;10.90;99.90;;;;;;5061911;28;20028;-55
2022/10/19 00:26:35;;;;;;;5.43;1.00;;;10.80;99.90;;;;;;5070342;28;20123;-54
2022/10/19 00:29:00;;;;;;;4.07;1.30;;;10.80;99.90;;;;;;5057930;28;20052;-57
2022/10/19 00:31:26;;;;;;;3.75;1.30;;;10.80;99.90;;;;;;5050815;28;20405;-57
2022/10/19 00:33:54;;;;;;;8.93;1.63;;;10.70;99.90;;;;;;5056802;28;20037;-56
2022/10/19 00:36:26;;;;;;;4.57;1.20;;;10.70;99.90;;;;;;5067721;28;20040;-56
2022/10/19 00:38:53;;;;;;;4.68;1.40;;;10.60;99.90;;;;;;5068921;28;20119;-56
2022/10/19 00:41:19;;;;;;;2.88;0.85;;;10.60;99.90;;;;;;5059366;28;20378;-56
2022/10/19 00:43:57;;;;;;;3.92;1.80;;;10.60;99.90;;;;;;5055718;28;20493;-58
2022/10/19 00:46:24;;;;;;;2.70;1.02;;;10.50;99.90;;;;;;5068842;28;20485;-57
2022/10/19 00:48:53;;;;;;;4.43;0.90;;;10.50;99.90;;;;;;5069196;28;20044;-56
2022/10/19 00:51:19;;;;;;;6.75;2.10;;;10.40;99.90;;;;;;5069308;28;20196;-55
2022/10/19 00:53:45;;;;;;;;;;;10.30;99.90;;;;;;5061816;28;20040;-56
2022/10/19 00:56:13;;;;;;;5.35;1.17;;;10.30;99.90;;;;;;5063892;28;19921;-57
2022/10/19 00:58:41;;;;;;;5.78;1.25;;;10.30;99.90;;;;;;5062988;28;20215;-56
2022/10/19 01:01:09;;;;;;;1.95;0.70;;;10.30;99.90;;;;;;5069275;28;20472;-57
2022/10/19 01:03:35;;;;;;;5.60;0.80;;;10.30;99.90;;;;;;5049840;28;20662;-57
2022/10/19 01:06:01;;;;;;;4.03;1.33;;;10.20;99.90;;;;;;5050178;28;20037;-56
2022/10/19 01:08:27;;;;;;;;;;;10.20;99.90;;;;;;5050405;28;20076;-58
2022/10/19 01:11:17;;;;;;;4.30;1.35;;;10.10;99.90;;;;;;5049479;28;20231;-56
2022/10/19 01:14:09;;;;;;;0.98;0.50;;;10.10;99.90;;;;;;5050565;28;20571;-58
2022/10/19 01:17:02;;;;;;;3.90;1.00;;;10.00;99.90;;;;;;5050010;28;20084;-57
2022/10/19 01:19:34;;;;;;;4.60;1.30;;;10.00;99.90;;;;;;5050146;28;20032;-57
2022/10/19 01:22:25;;;;;;;5.50;1.00;;;9.90;99.90;;;;;;5049969;28;20041;-57
2022/10/19 01:25:20;;;;;;;6.07;0.88;;;9.90;99.90;;;;;;5049615;28;20048;-58
2022/10/19 01:28:14;;;;;;;4.18;0.60;;;9.90;99.90;;;;;;5049965;28;20100;-56
2022/10/19 01:30:39;;;;;;;1.40;0.50;;;9.80;99.90;;;;;;5064926;28;20114;-55
2022/10/19 01:33:14;;;;;;;3.87;1.10;;;9.80;99.90;;;;;;5063989;28;20041;-57
2022/10/19 01:35:59;;;;;;;6.38;1.08;;;9.70;99.90;;;;;;5065413;28;20044;-58
2022/10/19 01:38:35;;;;;;;2.97;0.40;;;9.70;99.90;;;;;;5069594;28;20033;-58
2022/10/19 01:41:00;;;;;;;2.50;0.52;;;9.70;99.90;;;;;;5051155;28;20044;-58
2022/10/19 01:43:43;;;;;;;2.33;0.50;;;9.70;99.90;;;;;;5063895;28;20458;-55
2022/10/19 01:46:35;;;;;;;3.28;0.70;;;9.70;99.90;;;;;;5050758;28;20045;-57
2022/10/19 01:49:17;;;;;;;1.35;0.40;;;9.70;99.90;;;;;;5051944;28;20041;-58
2022/10/19 01:51:51;;;;;;;3.80;0.65;;;9.70;99.90;;;;;;5067844;28;20051;-58
2022/10/19 01:54:19;;;;;;;2.00;0.70;;;9.70;99.90;;;;;;5054229;28;20497;-58
2022/10/19 01:56:48;;;;;;;3.80;0.60;;;9.70;99.90;;;;;;5057066;28;20055;-56
2022/10/19 01:59:16;;;;;;;0.77;0.40;;;9.70;99.90;;;;;;5067608;28;20086;-56
2022/10/19 02:01:44;;;;;;;13.07;0.63;;;9.70;99.90;;;;;;5069082;28;20514;-57
2022/10/19 02:04:13;;;;;;;1.63;0.70;;;9.70;99.90;;;;;;5065587;28;20397;-54
2022/10/19 02:06:39;;;;;;;2.22;0.40;;;9.80;99.90;;;;;;5063985;28;20148;-56
2022/10/19 02:09:05;;;;;;;4.38;0.40;;;9.80;99.90;;;;;;5049292;28;20033;-57
2022/10/19 02:11:32;;;;;;;1.75;0.30;;;9.80;99.90;;;;;;5062274;28;20048;-55
2022/10/19 02:14:07;;;;;;;4.30;0.60;;;9.90;99.90;;;;;;5050353;28;20073;-56
2022/10/19 02:16:39;;;;;;;2.75;0.47;;;9.90;99.90;;;;;;5066568;28;20036;-56
2022/10/19 02:19:07;;;;;;;2.63;0.55;;;10.00;99.90;;;;;;5069030;28;20106;-56
2022/10/19 02:21:33;;;;;;;8.25;1.15;;;9.90;99.90;;;;;;5050806;28;20025;-55
2022/10/19 02:23:59;;;;;;;5.40;0.95;;;10.00;99.90;;;;;;5051370;28;20051;-55
2022/10/19 02:26:25;;;;;;;2.40;1.20;;;10.00;99.90;;;;;;5056776;28;20041;-56
2022/10/19 02:28:53;;;;;;;9.90;1.60;;;10.00;99.90;;;;;;5072190;28;20040;-58
2022/10/19 02:31:19;;;;;;;4.65;1.83;;;10.10;99.90;;;;;;5058869;28;20036;-56
2022/10/19 02:33:44;;;;;;;3.63;1.13;;;10.10;99.90;;;;;;5072835;28;20044;-56
2022/10/19 02:36:10;;;;;;;4.37;1.23;;;10.10;99.90;;;;;;5057620;28;20310;-57
2022/10/19 02:38:35;;;;;;;4.90;1.47;;;10.10;99.90;;;;;;5053032;28;20125;-55
2022/10/19 02:41:16;;;;;;;4.63;1.73;;;10.10;99.90;;;;;;5057867;28;20674;-54
2022/10/19 02:43:46;;;;;;;7.53;1.42;;;10.10;99.90;;;;;;5052239;28;20072;-56
2022/10/19 02:46:24;;;;;;;6.47;1.10;;;10.10;99.90;;;;;;5053467;28;20112;-56
2022/10/19 02:48:50;;;;;;;8.30;1.35;;;10.00;99.90;;;;;;5068090;28;20422;-55
2022/10/19 02:51:31;;;;;;;8.18;1.50;;;10.00;99.90;;;;;;5058856;28;20559;-58
2022/10/19 02:53:57;;;;;;;5.53;1.20;;;10.00;99.90;;;;;;5052819;28;20041;-56
2022/10/19 02:56:22;;;;;;;12.60;1.40;;;10.00;99.90;;;;;;5064294;28;20060;-56
2022/10/19 02:58:48;;;;;;;6.17;1.67;;;10.00;99.90;;;;;;5052316;28;20339;-57
2022/10/19 03:01:13;;;;;;;8.90;1.50;;;10.00;99.90;;;;;;5052040;28;20501;-57
2022/10/19 03:03:39;;;;;;;7.30;1.80;;;10.00;99.90;;;;;;5052075;28;20037;-57
2022/10/19 03:06:05;;;;;;;4.97;0.97;;;10.00;99.90;;;;;;5052717;28;20041;-58
2022/10/19 03:08:30;;;;;;;3.20;1.70;;;10.00;99.90;;;;;;5052523;28;20796;-54
2022/10/19 03:10:59;;;;;;;5.20;1.70;;;10.00;99.90;;;;;;5052061;28;20029;-57
2022/10/19 03:13:25;;;;;;;4.47;1.20;;;10.00;99.90;;;;;;5051468;28;20044;-55
2022/10/19 03:15:50;;;;;;;7.97;1.60;;;10.00;99.90;;;;;;5051592;28;20601;-56
2022/10/19 03:18:16;;;;;;;5.87;2.03;;;10.00;99.90;;;;;;5065470;28;20033;-57
2022/10/19 03:20:41;;;;;;;5.50;1.75;;;10.00;99.90;;;;;;5071762;28;20041;-56
2022/10/19 03:23:07;;;;;;;6.93;2.33;;;10.00;99.90;;;;;;5071195;28;20046;-56
2022/10/19 03:25:32;;;;;;;4.27;1.73;;;10.00;99.90;;;;;;5060103;28;20041;-55
2022/10/19 03:27:58;;;;;;;2.37;1.57;;;10.10;99.90;;;;;;5071011;28;20036;-58
2022/10/19 03:30:23;;;;;;;7.25;1.70;;;10.10;99.90;;;;;;5057722;28;20154;-58
2022/10/19 03:32:49;;;;;;;6.83;1.30;;;10.10;99.90;;;;;;5066699;28;20150;-58
2022/10/19 03:35:15;;;;;;;4.27;1.50;;;10.10;99.90;;;;;;5070839;28;20067;-57
2022/10/19 03:37:40;;;;;;;4.90;1.73;;;10.10;99.90;;;;;;5061507;28;20426;-54
2022/10/19 03:40:06;;;;;;;3.53;1.00;;;10.10;99.90;;;;;;5057565;28;20032;-57
2022/10/19 03:42:32;;;;;;;7.10;1.58;;;10.10;99.90;;;;;;5070174;28;20416;-57
2022/10/19 03:44:57;;;;;;;4.63;1.60;;;10.10;99.90;;;;;;5053602;28;20091;-58
2022/10/19 03:47:23;;;;;;;5.70;1.30;;;10.10;99.90;;;;;;5059875;28;20401;-56
2022/10/19 03:49:49;;;;;;;3.37;1.57;;;10.10;99.90;;;;;;5069596;28;20290;-58
2022/10/19 03:52:18;;;;;;;5.57;1.30;;;10.10;99.90;;;;;;5069724;28;20655;-58
2022/10/19 03:54:44;;;;;;;6.88;1.30;;;10.10;99.90;;;;;;5057788;28;20102;-58
2022/10/19 03:57:11;;;;;;;3.28;1.17;;;10.10;99.90;;;;;;5062640;28;20052;-57
2022/10/19 03:59:36;;;;;;;;;;;10.10;99.90;;;;;;5063743;28;20033;-58
2022/10/19 04:02:02;;;;;;;4.03;1.50;;;10.10;99.90;;;;;;5064081;28;19923;-57
2022/10/19 04:04:28;;;;;;;5.10;1.58;;;10.10;99.90;;;;;;5064624;28;20394;-58
2022/10/19 04:06:54;;;;;;;4.83;1.47;;;10.10;99.90;;;;;;5055579;28;20034;-58
2022/10/19 04:09:21;;;;;;;5.17;1.70;;;10.10;99.90;;;;;;5065802;28;20037;-57
2022/10/19 04:11:47;;;;;;;6.03;1.83;;;10.10;99.90;;;;;;5051517;28;20090;-57
2022/10/19 04:14:14;;;;;;;8.30;2.10;;;10.10;99.90;;;;;;5052937;28;20032;-58
2022/10/19 04:16:39;;;;;;;5.97;1.27;;;10.00;99.90;;;;;;5069119;28;20045;-58
2022/10/19 04:19:05;;;;;;;7.90;1.40;;;10.00;99.90;;;;;;5053549;28;20044;-59
2022/10/19 04:21:36;;;;;;;9.67;1.77;;;10.00;99.90;;;;;;5069186;28;20455;-58
2022/10/19 04:24:04;;;;;;;5.63;1.75;;;9.90;99.90;;;;;;5068815;28;20047;-56
2022/10/19 04:26:30;;;;;;;3.58;1.27;;;9.90;99.90;;;;;;5053724;28;20378;-54
2022/10/19 04:29:00;;;;;;;4.53;1.60;;;9.90;99.90;;;;;;5058160;28;20052;-55
2022/10/19 04:31:27;;;;;;;6.93;1.30;;;9.90;99.90;;;;;;5060837;28;20037;-56
2022/10/19 04:33:52;;;;;;;5.15;1.50;;;9.90;99.90;;;;;;5050105;28;20357;-58
2022/10/19 04:36:18;;;;;;;6.47;1.67;;;9.80;99.90;;;;;;5062807;28;20108;-56
2022/10/19 04:38:43;;;;;;;5.17;1.53;;;9.80;99.90;;;;;;5051661;28;20279;-56
2022/10/19 04:41:15;;;;;;;6.30;2.07;;;9.90;99.90;;;;;;5066864;28;20559;-55
2022/10/19 04:43:44;;;;;;;5.45;1.85;;;9.80;99.90;;;;;;5064560;28;20353;-56
2022/10/19 04:46:12;;;;;;;5.70;1.65;;;9.90;99.90;;;;;;5051724;28;20048;-58
2022/10/19 04:48:39;;;;;;;2.30;0.95;;;9.90;99.90;;;;;;5067419;28;20048;-55
2022/10/19 04:51:06;;;;;;;2.80;0.90;;;9.80;99.90;;;;;;5068135;28;20036;-58
2022/10/19 04:53:32;;;;;;;;;;;9.80;99.90;;;;;;5050438;28;20098;-57
2022/10/19 04:55:57;;;;;;;1.40;1.02;;;9.80;99.90;;;;;;5050301;28;19924;-57
2022/10/19 04:58:23;;;;;;;2.03;0.80;;;9.70;99.90;;;;;;5062049;28;20042;-56
2022/10/19 05:00:49;;;;;;;4.03;1.33;;;9.70;99.90;;;;;;5057915;28;20037;-57
2022/10/19 05:03:15;;;;;;;5.07;0.90;;;9.70;99.90;;;;;;5069382;28;20448;-55
2022/10/19 05:05:40;;;;;;;3.17;0.80;;;9.70;99.90;;;;;;5070201;28;20417;-57
2022/10/19 05:08:07;;;;;;;3.30;1.20;;;9.70;99.90;;;;;;5069842;28;20079;-56
2022/10/19 05:10:32;;;;;;;5.45;1.10;;;9.70;99.90;;;;;;5068875;28;20052;-58
2022/10/19 05:13:01;;;;;;;8.03;1.83;;;9.70;99.90;;;;;;5069738;28;20036;-56
2022/10/19 05:15:27;;;;;;;3.78;1.63;;;9.80;99.90;;;;;;5070129;28;20037;-55
2022/10/19 05:17:53;;;;;;;4.38;1.00;;;9.80;99.90;;;;;;5065438;28;20040;-54
2022/10/19 05:20:19;;;;;;;7.75;1.35;;;9.80;99.90;;;;;;5049856;28;20502;-54
2022/10/19 05:22:44;;;;;;;6.93;1.33;;;9.80;99.90;;;;;;5049474;28;20049;-57
2022/10/19 05:25:10;;;;;;;1.63;1.23;;;9.80;99.90;;;;;;5050623;28;20040;-57
2022/10/19 05:27:35;;;;;;;2.80;1.20;;;9.80;99.90;;;;;;5058788;28;20029;-56
2022/10/19 05:30:01;;;;;;;5.63;1.37;;;9.80;99.90;;;;;;5064526;28;20082;-55
2022/10/19 05:32:27;;;;;;;8.57;1.60;;;9.80;99.90;;;;;;5057887;28;20474;-57
2022/10/19 05:34:52;;;;;;;5.03;1.20;;;9.80;99.90;;;;;;5047924;28;20122;-57
2022/10/19 05:37:18;;;;;;;6.50;1.73;;;9.80;99.90;;;;;;5050407;28;20036;-54
2022/10/19 05:39:43;;;;;;;8.37;1.43;;;9.90;99.90;;;;;;5058955;28;20041;-58
2022/10/19 05:42:09;;;;;;;5.60;1.90;;;9.90;99.90;;;;;;5064824;28;20028;-58
2022/10/19 05:44:35;;;;;;;5.57;1.47;;;9.90;99.90;;;;;;5069091;28;20041;-59
2022/10/19 05:47:01;;;;;;;7.72;1.75;;;9.90;99.90;;;;;;5055284;28;20090;-56
2022/10/19 05:49:26;;;;;;;7.77;1.03;;;9.90;99.90;;;;;;5050193;28;20037;-57
2022/10/19 05:51:52;;;;;;;9.25;1.73;;;9.90;99.90;;;;;;5049389;28;20286;-57
2022/10/19 05:54:18;;;;;;;5.97;1.95;;;9.90;99.90;;;;;;5049858;28;20049;-58
2022/10/19 05:56:45;;;;;;;6.18;1.23;;;9.90;99.90;;;;;;5049813;28;20413;-57
2022/10/19 05:59:17;;;;;;;10.07;1.65;;;9.90;99.90;;;;;;5052564;28;20405;-54
2022/10/19 06:01:43;;;;;;;6.82;1.17;;;9.90;99.90;;;;;;5053219;28;20045;-57
2022/10/19 06:04:13;;;;;;;4.38;1.25;;;9.90;99.90;;;;;;5066764;28;20098;-58
2022/10/19 06:06:40;;;;;;;2.83;1.02;;;9.90;99.90;;;;;;5073014;28;20048;-56
2022/10/19 06:09:06;;;;;;;5.45;0.88;;;9.80;99.90;;;;;;5073478;28;20044;-58
2022/10/19 06:11:35;;;;;;;8.98;1.23;;;9.80;99.90;;;;;;5073368;28;20044;-57
2022/10/19 06:14:04;;;;;;;6.88;2.03;;;9.80;99.90;;;;;;5071310;28;20075;-58
2022/10/19 06:16:30;;;;;;;13.48;2.17;;;9.80;99.90;;;;;;5060599;28;20045;-58
2022/10/19 06:18:57;;;;;;;7.80;1.15;;;9.70;99.90;;;;;;5051725;28;20052;-60
2022/10/19 06:21:25;;;;;;;6.82;1.83;;;9.70;99.90;;;;;;5052827;28;20455;-58
2022/10/19 06:23:52;;;;;;;8.45;1.70;;;9.70;99.90;;;;;;5055221;28;20637;-56
2022/10/19 06:26:18;;;;;;;6.60;1.02;;;9.70;99.90;;;;;;5073136;28;20125;-57
2022/10/19 06:28:44;;;;;;;5.43;1.35;;;9.70;99.90;;;;;;5072729;28;20076;-58
2022/10/19 06:31:11;;;;;;;10.13;1.90;;;9.70;99.90;;;;;;5071481;28;20044;-58
2022/10/19 06:33:39;;;;;;;4.25;0.82;;;9.80;99.90;;;;;;5060733;28;20108;-58
2022/10/19 06:36:19;;;;;;;6.70;1.27;;;9.80;99.90;;;;;;5055814;28;20581;-57
2022/10/19 06:38:45;;;;;;;13.43;2.00;;;9.80;99.90;;;;;;5052941;28;20025;-58
2022/10/19 06:41:11;;;;;;;6.68;1.67;;;9.90;99.90;;;;;;5054699;28;20041;-58
2022/10/19 06:43:37;;;;;;;5.78;0.95;;;9.90;99.90;;;;;;5060031;28;20033;-59
2022/10/19 06:46:09;;;;;;;8.48;0.93;;;10.00;99.90;;;;;;5062958;28;20067;-59
2022/10/19 06:48:34;;;;;;;10.15;1.00;;;10.00;99.90;;;;;;5062669;28;20037;-56
2022/10/19 06:51:02;;;;;;;6.80;1.63;;;10.00;99.90;;;;;;5060644;28;20060;-58
2022/10/19 06:53:28;;;;;;;15.73;2.10;;;10.10;99.90;;;;;;5058320;28;20666;-54
2022/10/19 06:56:00;;;;;;;7.03;1.23;;;10.20;99.90;;;;;;5057973;28;20032;-55
2022/10/19 06:58:26;;;;;;;5.35;1.15;;;10.20;99.90;;;;;;5067106;28;20043;-56
2022/10/19 07:00:57;;;;;;;27.60;4.07;;;10.30;99.90;;;;;;5059165;28;20448;-55
2022/10/19 07:03:24;;;;;;;12.77;1.35;;;10.30;99.90;;;;;;5064172;28;20396;-58
2022/10/19 07:06:01;;;;;;;13.90;1.38;;;10.30;99.90;;;;;;5064216;28;20142;-57
2022/10/19 07:08:27;;;;;;;;;;;10.40;99.90;;;;;;5064613;28;20028;-55
2022/10/19 07:10:56;;;;;;;7.55;1.00;;;10.40;99.90;;;;;;5061878;28;19916;-55
2022/10/19 07:13:22;;;;;;;20.40;1.40;;;10.50;99.90;;;;;;5054734;28;20044;-55
2022/10/19 07:15:48;;;;;;;16.83;1.90;;;10.60;99.90;;;;;;5059927;28;20033;-56
2022/10/19 07:18:14;;;;;;;7.10;1.08;;;10.60;99.90;;;;;;5053333;28;20380;-56
2022/10/19 07:20:40;;;;;;;9.45;1.23;;;10.70;99.90;;;;;;5055671;28;20040;-56
2022/10/19 07:23:06;;;;;;;8.35;1.40;;;10.80;99.90;;;;;;5055268;28;20029;-58
2022/10/19 07:25:32;;;;;;;10.93;1.42;;;10.80;99.90;;;;;;5057504;28;20378;-56
2022/10/19 07:27:58;;;;;;;7.47;1.13;;;10.90;99.90;;;;;;5057274;28;20036;-55
2022/10/19 07:30:24;;;;;;;8.60;1.92;;;11.00;99.90;;;;;;5060392;28;20070;-57
2022/10/19 07:32:49;;;;;;;7.85;1.00;;;11.00;99.90;;;;;;5067655;28;20033;-54
2022/10/19 07:35:15;;;;;;;5.40;1.03;;;11.00;99.90;;;;;;5056384;28;20037;-57
2022/10/19 07:37:40;;;;;;;13.27;1.37;;;11.10;99.90;;;;;;5066292;28;20040;-58
2022/10/19 07:40:07;;;;;;;16.13;1.47;;;11.10;99.90;;;;;;5057901;28;20283;-57
2022/10/19 07:42:32;;;;;;;;;;;11.20;99.90;;;;;;5055821;28;20033;-57
2022/10/19 07:44:58;;;;;;;13.20;1.10;;;11.20;99.90;;;;;;5058375;28;19924;-58
2022/10/19 07:47:23;;;;;;;8.00;0.93;;;11.30;99.90;;;;;;5069565;28;20413;-58
2022/10/19 07:49:49;;;;;;;8.33;1.30;;;11.30;99.90;;;;;;5068851;28;20059;-57
2022/10/19 07:52:15;;;;;;;15.47;1.43;;;11.40;99.90;;;;;;5061938;28;20064;-58
2022/10/19 07:54:40;;;;;;;11.48;1.05;;;11.50;99.90;;;;;;5062337;28;20105;-56
2022/10/19 07:57:06;;;;;;;7.63;1.00;;;11.50;99.90;;;;;;5066295;28;20036;-57
2022/10/19 07:59:31;;;;;;;13.93;1.83;;;11.60;99.90;;;;;;5070570;28;20094;-55
2022/10/19 08:01:58;;;;;;;23.33;1.43;;;11.70;99.90;;;;;;5064937;28;20025;-57
2022/10/19 08:04:24;;;;;;;13.02;1.25;;;11.80;99.90;;;;;;5050746;28;20045;-55
2022/10/19 08:06:49;;;;;;;5.63;1.07;;;11.90;99.90;;;;;;5048953;28;20600;-57
2022/10/19 08:09:15;;;;;;;13.60;2.43;;;12.00;99.90;;;;;;5051236;28;20506;-58
2022/10/19 08:11:40;;;;;;;15.70;1.27;;;12.10;99.90;;;;;;5048739;28;20071;-57
2022/10/19 08:14:06;;;;;;;10.47;0.90;;;12.10;99.90;;;;;;5056432;28;20326;-55
2022/10/19 08:16:39;;;;;;;4.70;0.60;;;12.20;99.90;;;;;;5053865;28;20292;-57
2022/10/19 08:19:07;;;;;;;11.23;1.35;;;12.30;99.90;;;;;;5059268;28;20355;-56
2022/10/19 08:21:33;;;;;;;14.90;1.08;;;12.40;99.90;;;;;;5057457;28;20036;-57
2022/10/19 08:23:59;;;;;;;13.82;1.33;;;12.50;99.90;;;;;;5047653;28;20111;-57
2022/10/19 08:26:28;;;;;;;7.15;0.93;;;12.60;99.90;;;;;;5054404;28;20119;-57
2022/10/19 08:28:59;;;;;;;11.60;1.20;;;12.70;99.90;;;;;;5058436;28;20033;-56
2022/10/19 08:31:25;;;;;;;15.88;1.15;;;12.80;99.90;;;;;;5045592;28;20044;-57
2022/10/19 08:33:50;;;;;;;9.43;0.90;;;12.80;99.90;;;;;;5051850;28;20043;-57
2022/10/19 08:36:18;;;;;;;7.57;0.68;;;12.90;99.90;;;;;;5059554;28;20095;-54
2022/10/19 08:38:47;;;;;;;9.90;0.90;;;13.00;99.90;;;;;;5050767;28;20036;-57
2022/10/19 08:41:50;;;;;;;10.30;1.33;;;13.00;99.90;;;;;;5053631;28;20306;-56
2022/10/19 08:44:42;;;;;;;5.18;0.70;;;13.20;99.90;;;;;;5052739;28;20646;-58
2022/10/19 08:47:33;;;;;;;15.52;1.05;;;13.30;99.90;;;;;;5063233;28;20413;-57
2022/10/19 08:49:59;;;;;;;11.02;0.90;;;13.40;99.90;;;;;;5055523;28;20044;-57
2022/10/19 08:52:34;;;;;;;15.70;1.73;;;13.60;99.90;;;;;;5048663;28;20033;-58
2022/10/19 08:55:04;;;;;;;12.18;1.15;;;13.70;99.90;;;;;;5056330;28;20036;-58
2022/10/19 08:58:17;;;;;;;10.15;2.40;;;13.70;99.90;;;;;;5055493;28;20079;-58
2022/10/19 09:00:50;;;;;;;12.75;1.30;;;13.60;99.90;;;;;;5051729;28;20047;-56
2022/10/19 09:03:21;;;;;;;5.88;0.88;;;13.60;99.90;;;;;;5049799;28;20048;-57
2022/10/19 09:06:22;;;;;;;10.65;0.70;;;13.60;99.90;;;;;;5050975;28;20162;-56
2022/10/19 09:08:50;;;;;;;10.55;0.82;;;13.60;99.90;;;;;;5053315;28;20045;-58
2022/10/19 09:11:22;;;;;;;10.52;0.77;;;13.40;99.90;;;;;;5054659;28;20029;-59
2022/10/19 09:13:51;;;;;;;9.30;1.40;;;13.30;99.90;;;;;;5052051;28;20036;-58
2022/10/19 09:16:19;;;;;;;11.05;0.80;;;13.30;99.90;;;;;;5050879;28;20049;-59
2022/10/19 09:18:48;;;;;;;10.88;0.93;;;13.20;99.90;;;;;;5049846;28;20029;-56
2022/10/19 09:21:27;;;;;;;11.20;0.85;;;13.10;99.90;;;;;;5052682;28;20043;-57
2022/10/19 09:24:03;;;;;;;5.75;1.48;;;13.10;99.90;;;;;;5050746;28;20376;-56
2022/10/19 09:26:34;;;;;;;10.07;0.52;;;13.10;99.90;;;;;;5054766;28;20473;-58
2022/10/19 09:29:20;;;;;;;6.88;0.70;;;13.00;99.90;;;;;;5052166;28;20049;-56
2022/10/19 09:31:46;;;;;;;7.32;0.70;;;13.00;99.90;;;;;;5052946;28;20032;-56
2022/10/19 09:34:15;;;;;;;4.63;1.05;;;13.00;99.90;;;;;;5055101;28;20131;-57
2022/10/19 09:36:44;;;;;;;4.88;0.82;;;12.90;99.90;;;;;;5054823;28;20045;-57
2022/10/19 09:39:13;;;;;;;6.35;1.08;;;13.00;99.90;;;;;;5060018;28;20047;-57
2022/10/19 09:41:48;;;;;;;6.53;0.60;;;13.10;99.90;;;;;;5058617;28;20202;-56
2022/10/19 09:44:14;;;;;;;8.80;0.80;;;13.30;99.90;;;;;;5054711;28;20033;-57
2022/10/19 09:46:52;;;;;;;8.48;1.60;;;13.40;99.90;;;;;;5055451;28;20098;-57
2022/10/19 09:49:36;;;;;;;5.47;0.60;;;13.70;99.90;;;;;;5059793;28;20080;-56
2022/10/19 09:52:02;;;;;;;11.25;1.25;;;13.90;99.90;;;;;;5056979;28;20125;-57
2022/10/19 09:54:35;;;;;;;8.68;0.90;;;14.10;99.90;;;;;;5055217;28;20486;-56
2022/10/19 09:57:01;;;;;;;6.03;0.77;;;14.10;99.90;;;;;;5060135;28;20044;-57
2022/10/19 09:59:35;;;;;;;4.50;1.20;;;14.20;99.90;;;;;;5053989;28;20048;-56
2022/10/19 10:02:16;;;;;;;7.65;0.70;;;14.20;99.90;;;;;;5058551;28;20159;-57
2022/10/19 10:05:02;;;;;;;9.52;0.85;;;14.30;99.90;;;;;;5058295;28;20036;-57
2022/10/19 10:07:34;;;;;;;12.65;1.98;;;14.40;99.90;;;;;;5059578;28;20558;-55
2022/10/19 10:10:00;;;;;;;6.28;0.80;;;14.50;99.90;;;;;;5058040;28;20649;-57
2022/10/19 10:12:26;;;;;;;8.02;0.50;;;14.60;99.90;;;;;;5058314;28;20071;-56
2022/10/19 10:14:52;;;;;;;9.15;0.80;;;14.60;99.90;;;;;;5055382;28;20028;-57
2022/10/19 10:17:21;;;;;;;14.80;1.50;;;14.70;99.90;;;;;;5058282;28;20165;-55
2022/10/19 10:19:57;;;;;;;8.10;0.88;;;14.80;99.90;;;;;;5060050;28;20718;-57
2022/10/19 10:22:28;;;;;;;7.28;1.10;;;14.80;99.90;;;;;;5058750;28;20033;-56
2022/10/19 10:24:55;;;;;;;10.80;1.10;;;14.80;99.90;;;;;;5054384;28;20028;-57
2022/10/19 10:27:37;;;;;;;8.48;0.95;;;14.80;99.90;;;;;;5058448;28;20513;-57
2022/10/19 10:30:15;;;;;;;10.18;0.50;;;14.90;99.90;;;;;;5055569;28;20248;-54
2022/10/19 10:32:48;;;;;;;12.35;0.70;;;14.90;99.90;;;;;;5056430;28;20383;-54
2022/10/19 10:35:21;;;;;;;12.80;0.57;;;15.00;99.90;;;;;;5054454;28;20044;-53
2022/10/19 10:37:48;;;;;;;7.75;0.73;;;15.00;99.90;;;;;;5057939;28;20066;-51
2022/10/19 10:40:23;;;;;;;7.38;0.88;;;14.90;99.90;;;;;;5055713;28;20427;-55
2022/10/19 10:42:51;;;;;;;8.13;1.23;;;14.90;99.90;;;;;;5057151;28;20044;-53
2022/10/19 10:45:28;;;;;;;16.00;1.10;;;14.90;99.90;;;;;;5052053;28;20121;-54
2022/10/19 10:47:55;;;;;;;9.18;0.70;;;14.90;99.90;;;;;;5055391;28;20037;-55
2022/10/19 10:50:30;;;;;;;6.30;1.05;;;15.00;99.70;;;;;;5053940;28;20040;-56
2022/10/19 10:53:01;;;;;;;15.85;1.63;;;15.10;98.90;;;;;;5053244;28;20045;-56
2022/10/19 10:55:29;;;;;;;5.35;0.88;;;15.00;97.30;;;;;;5054273;28;20127;-56
2022/10/19 10:58:04;;;;;;;9.65;1.13;;;14.80;97.60;;;;;;5058586;28;20167;-56
2022/10/19 11:00:30;;;;;;;5.97;0.90;;;14.60;97.50;;;;;;5057183;28;20067;-56
2022/10/19 11:03:15;;;;;;;8.68;0.88;;;14.60;97.70;;;;;;5057374;28;20090;-55
2022/10/19 11:05:46;;;;;;;11.45;1.35;;;14.70;98.50;;;;;;5057355;28;20032;-57
2022/10/19 11:08:11;;;;;;;11.57;1.50;;;14.80;98.30;;;;;;5056488;28;20524;-56
2022/10/19 11:10:50;;;;;;;6.63;0.90;;;14.80;97.90;;;;;;5056304;28;20066;-57
2022/10/19 11:13:19;;;;;;;8.05;1.02;;;14.90;98.50;;;;;;5056481;28;20075;-53
2022/10/19 11:16:10;;;;;;;6.63;0.50;;;14.80;97.70;;;;;;5056671;28;20089;-55
2022/10/19 11:19:00;;;;;;;7.25;0.90;;;14.70;98.00;;;;;;5055676;28;20037;-56
2022/10/19 11:22:03;;;;;;;5.78;0.60;;;14.60;98.70;;;;;;5055593;28;20041;-55
2022/10/19 11:24:41;;;;;;;4.68;1.10;;;14.70;99.00;;;;;;5058150;28;20457;-55
2022/10/19 11:27:32;;;;;;;6.50;0.57;;;14.70;98.00;;;;;;5054219;28;20111;-56
2022/10/19 11:30:12;;;;;;;8.65;1.13;;;14.70;98.20;;;;;;5053778;28;20044;-55
2022/10/19 11:33:02;;;;;;;7.40;0.82;;;14.70;97.70;;;;;;5056137;28;20044;-53
2022/10/19 11:35:46;;;;;;;5.85;0.50;;;14.70;98.10;;;;;;5053915;28;20693;-56
2022/10/19 11:38:47;;;;;;;4.60;0.85;;;14.50;97.90;;;;;;5056188;28;20364;-53
2022/10/19 11:41:31;;;;;;;8.38;0.50;;;14.50;98.40;;;;;;5054951;28;20044;-56
2022/10/19 11:44:21;;;;;;;6.55;0.73;;;14.70;98.60;;;;;;5054210;28;20083;-55
2022/10/19 11:47:15;;;;;;;6.82;0.77;;;14.90;98.40;;;;;;5055256;28;20375;-56
2022/10/19 11:50:19;;;;;;;6.88;0.80;;;15.10;98.40;;;;;;5056300;28;20048;-56
2022/10/19 11:53:03;;;;;;;8.15;0.80;;;15.20;98.20;;;;;;5056571;28;20132;-56
2022/10/19 11:56:16;;;;;;;5.32;1.02;;;15.30;97.70;;;;;;5053766;28;20045;-53
2022/10/19 11:59:15;;;;;;;6.85;1.88;;;15.50;98.10;;;;;;5014358;28;20057;-57
2022/10/19 12:01:59;;;;;;;5.78;0.82;;;15.50;97.70;;;;;;5047634;28;20226;-56
2022/10/19 12:04:42;;;;;;;7.15;1.02;;;15.40;97.50;;;;;;5065661;28;20063;-53
2022/10/19 12:07:35;;;;;;;16.00;1.30;;;15.20;97.20;;;;;;5062931;28;20044;-54
2022/10/19 12:10:26;;;;;;;10.25;0.90;;;15.10;96.90;;;;;;5058415;28;20116;-55
2022/10/19 12:12:57;;;;;;;4.60;1.27;;;14.90;97.90;;;;;;5047876;28;20405;-56
2022/10/19 12:15:49;;;;;;;10.25;1.27;;;14.90;97.90;;;;;;5052140;28;20048;-56
2022/10/19 12:18:35;;;;;;;7.13;1.00;;;14.80;98.10;;;;;;5046565;28;20045;-55
2022/10/19 12:21:28;;;;;;;8.35;1.25;;;14.70;98.20;;;;;;5046928;28;20499;-56
2022/10/19 12:23:55;;;;;;;5.85;0.98;;;14.60;97.60;;;;;;5040482;28;20044;-55
2022/10/19 12:26:22;;;;;;;4.20;1.10;;;14.60;97.80;;;;;;5052527;28;20037;-56
2022/10/19 12:29:04;;;;;;;9.23;1.42;;;14.70;98.00;;;;;;5054766;28;20097;-56
2022/10/19 12:31:31;;;;;;;9.52;1.65;;;14.70;98.20;;;;;;5054677;28;20676;-55
2022/10/19 12:34:20;;;;;;;12.35;2.25;;;14.70;98.30;;;;;;5054701;28;20033;-57
2022/10/19 12:36:49;;;;;;;4.28;0.90;;;14.70;98.00;;;;;;5054379;28;20456;-56
2022/10/19 12:39:32;;;;;;;17.20;2.70;;;14.70;98.40;;;;;;5054616;28;20509;-55
2022/10/19 12:42:26;;;;;;;8.30;1.48;;;14.70;98.40;;;;;;5058270;28;20091;-56
2022/10/19 12:45:17;;;;;;;9.93;1.40;;;14.70;98.20;;;;;;5055431;28;20608;-57
2022/10/19 12:48:08;;;;;;;5.57;0.90;;;14.80;98.20;;;;;;5055167;28;20060;-56
2022/10/19 12:50:48;;;;;;;6.97;1.00;;;14.90;98.70;;;;;;5053997;28;20197;-57
2022/10/19 12:53:30;;;;;;;5.50;0.80;;;14.90;98.20;;;;;;5055061;28;20069;-57
2022/10/19 12:56:16;;;;;;;9.75;1.58;;;15.10;98.50;;;;;;5053448;28;20704;-56
2022/10/19 12:58:47;;;;;;;6.90;2.20;;;15.20;98.30;;;;;;5045938;28;20177;-55
2022/10/19 13:01:18;;;;;;;7.35;2.63;;;15.10;97.90;;;;;;5055827;28;20041;-55
2022/10/19 13:03:45;;;;;;;5.60;2.25;;;14.90;97.70;;;;;;5053640;28;20105;-57
2022/10/19 13:06:32;;;;;;;3.88;1.85;;;14.70;97.90;;;;;;5052800;28;20302;-57
2022/10/19 13:09:01;;;;;;;40.42;11.13;;;14.70;98.50;;;;;;5052467;28;20040;-53
2022/10/19 13:11:27;;;;;;;13.60;4.53;;;14.50;98.30;;;;;;5054907;28;20044;-56